Terminal Aerodrome Forecast
Issued by NWS Melbourne, FL

Home | Current Version | Previous Version | Text Only | Print | Product List | Glossary On
Versions: 1 2 3 4 5 6 7 8 9 10 11 12
766
FTUS42 KMLB 221736
TAFVRB
TAF
KVRB 221736Z 2218/2318 13014G20KT P6SM FEW035 FEW250
     FM230000 13009KT P6SM FEW030 FEW250
     FM230600 13005KT P6SM SCT025
     FM231500 12010KT P6SM SCT030=

USA.gov is the U.S. government's official web portal to all federal, state and local government web resources and services.